Time;durP1;ratioP1;P1;durP2;ratioP2;P2;SDS_P1;SDS_P2;PMS_P1;PMS_P2;Temp;Humidity;BMP_temperature;BMP_pressure;BME280_temperature;BME280_humidity;BME280_pressure;Samples;Min_cycle;Max_cycle;Signal;HPM_P1;HPM_P2
2023/03/06 00:00:42;;;;;;;3.53;2.70;;;3.80;99.90;;;;;;5017206;28;20214;-65
2023/03/06 00:03:09;;;;;;;5.97;2.73;;;4.00;99.90;;;;;;4998901;28;20207;-65
2023/03/06 00:05:37;;;;;;;3.80;2.70;;;3.90;99.90;;;;;;5010674;28;20251;-67
2023/03/06 00:08:04;;;;;;;3.00;2.30;;;4.00;99.90;;;;;;5016698;28;20569;-66
2023/03/06 00:10:32;;;;;;;5.20;2.70;;;3.80;99.90;;;;;;5016991;28;20233;-66
2023/03/06 00:13:01;;;;;;;3.20;2.47;;;3.90;99.90;;;;;;4999228;28;20297;-64
2023/03/06 00:15:28;;;;;;;2.80;2.13;;;3.70;99.90;;;;;;4998881;28;20287;-63
2023/03/06 00:17:56;;;;;;;3.37;2.50;;;3.70;99.90;;;;;;5015862;28;20258;-61
2023/03/06 00:20:25;;;;;;;3.37;2.40;;;3.80;99.90;;;;;;5016814;28;20204;-62
2023/03/06 00:22:52;;;;;;;3.03;2.23;;;3.80;99.90;;;;;;5015851;28;20747;-61
2023/03/06 00:25:20;;;;;;;4.20;2.60;;;3.60;99.90;;;;;;5013858;28;20310;-61
2023/03/06 00:27:48;;;;;;;3.37;2.30;;;3.50;99.90;;;;;;5016743;28;20290;-61
2023/03/06 00:30:18;;;;;;;3.87;2.80;;;3.40;99.90;;;;;;4998264;28;20246;-61
2023/03/06 00:32:45;;;;;;;4.83;2.40;;;3.50;99.90;;;;;;5006216;28;20256;-62
2023/03/06 00:35:13;;;;;;;3.57;2.93;;;3.50;99.90;;;;;;5013652;28;20286;-61
2023/03/06 00:37:41;;;;;;;3.33;2.67;;;3.60;99.90;;;;;;5017327;28;20221;-62
2023/03/06 00:40:11;;;;;;;2.63;2.37;;;3.60;99.90;;;;;;5016070;28;20973;-61
2023/03/06 00:42:39;;;;;;;4.87;2.77;;;3.50;99.90;;;;;;5018113;28;20202;-61
2023/03/06 00:45:07;;;;;;;4.00;2.53;;;3.50;99.90;;;;;;5013866;28;20210;-61
2023/03/06 00:47:33;;;;;;;4.83;2.53;;;3.50;99.90;;;;;;5015526;28;20215;-61
2023/03/06 00:50:00;;;;;;;3.07;2.47;;;3.70;99.90;;;;;;5015196;28;20717;-61
2023/03/06 00:52:27;;;;;;;4.07;2.67;;;3.60;99.90;;;;;;4999803;28;20205;-61
2023/03/06 00:54:54;;;;;;;3.00;2.70;;;3.60;99.90;;;;;;5016425;28;20537;-61
2023/03/06 00:57:21;;;;;;;4.27;2.70;;;3.40;99.90;;;;;;4996471;28;20857;-61
2023/03/06 00:59:48;;;;;;;4.67;2.83;;;3.50;99.90;;;;;;5017078;28;20274;-61
2023/03/06 01:02:15;;;;;;;4.20;3.10;;;3.50;99.90;;;;;;5020220;28;20204;-61
2023/03/06 01:04:42;;;;;;;3.43;2.57;;;3.40;99.90;;;;;;5017739;28;20206;-61
2023/03/06 01:07:09;;;;;;;6.27;3.20;;;3.60;99.90;;;;;;5019302;28;20205;-61
2023/03/06 01:09:36;;;;;;;4.40;3.20;;;3.50;99.90;;;;;;5020474;28;20210;-64
2023/03/06 01:12:03;;;;;;;5.43;2.93;;;3.50;99.90;;;;;;5019368;28;20231;-61
2023/03/06 01:14:30;;;;;;;3.53;3.00;;;3.70;99.90;;;;;;5015850;28;21108;-61
2023/03/06 01:16:58;;;;;;;3.20;2.40;;;3.60;99.90;;;;;;5003296;28;20541;-62
2023/03/06 01:19:25;;;;;;;4.77;2.93;;;3.40;99.90;;;;;;5018103;28;20234;-65
2023/03/06 01:21:52;;;;;;;3.27;2.73;;;3.50;99.90;;;;;;5009017;28;20206;-62
2023/03/06 01:24:18;;;;;;;3.23;2.40;;;3.20;99.90;;;;;;5017476;28;20256;-62
2023/03/06 01:26:45;;;;;;;4.47;2.43;;;2.90;99.90;;;;;;5019185;28;20237;-61
2023/03/06 01:29:12;;;;;;;3.57;3.03;;;2.70;99.90;;;;;;5017960;28;20221;-61
2023/03/06 01:31:39;;;;;;;3.77;2.93;;;2.70;99.90;;;;;;5019044;28;20261;-61
2023/03/06 01:34:06;;;;;;;3.67;2.67;;;2.80;99.90;;;;;;5015222;28;20217;-61
2023/03/06 01:36:33;;;;;;;4.27;3.30;;;2.90;99.90;;;;;;5020245;28;20260;-61
2023/03/06 01:39:00;;;;;;;6.33;3.50;;;2.90;99.90;;;;;;5003134;28;20204;-61
2023/03/06 01:41:27;;;;;;;4.67;3.20;;;2.80;99.90;;;;;;5018531;28;20296;-61
2023/03/06 01:43:54;;;;;;;5.53;3.33;;;2.80;99.90;;;;;;5018587;28;20267;-61
2023/03/06 01:46:41;;;;;;;5.17;3.13;;;2.60;99.90;;;;;;5016922;28;20221;-61
2023/03/06 01:49:28;;;;;;;4.80;2.70;;;2.70;99.90;;;;;;5019985;28;20305;-61
2023/03/06 01:52:04;;;;;;;4.03;3.10;;;2.70;99.90;;;;;;5013841;28;20673;-61
2023/03/06 01:55:01;;;;;;;5.43;3.27;;;2.80;99.90;;;;;;5018848;28;20778;-62
2023/03/06 01:57:51;;;;;;;6.47;3.90;;;2.80;99.90;;;;;;5019983;28;20565;-61
2023/03/06 02:00:23;;;;;;;5.17;3.20;;;2.70;99.90;;;;;;5017519;28;20626;-61
2023/03/06 02:02:59;;;;;;;8.40;4.10;;;2.90;99.90;;;;;;5016367;28;20194;-61
2023/03/06 02:05:26;;;;;;;6.37;3.30;;;3.00;99.90;;;;;;5013559;28;20577;-61
2023/03/06 02:07:53;;;;;;;6.73;4.23;;;2.70;99.90;;;;;;5015450;28;20197;-61
2023/03/06 02:10:21;;;;;;;5.43;3.83;;;2.70;99.90;;;;;;5018330;28;21895;-61
2023/03/06 02:12:50;;;;;;;7.27;3.60;;;2.70;99.90;;;;;;5019878;28;20689;-61
2023/03/06 02:15:21;;;;;;;5.50;3.30;;;2.70;99.90;;;;;;5002271;28;20205;-61
2023/03/06 02:17:50;;;;;;;6.00;4.10;;;2.60;99.90;;;;;;5019188;28;20233;-61
2023/03/06 02:20:36;;;;;;;6.77;3.77;;;2.50;99.90;;;;;;5018850;28;20225;-62
2023/03/06 02:23:12;;;;;;;5.77;3.83;;;2.50;99.90;;;;;;5019872;28;20214;-61
2023/03/06 02:25:45;;;;;;;6.50;3.87;;;2.50;99.90;;;;;;5017712;28;20258;-61
2023/03/06 02:28:16;;;;;;;5.70;4.27;;;2.50;99.90;;;;;;5017762;28;20207;-61
2023/03/06 02:30:45;;;;;;;8.30;4.57;;;2.60;99.90;;;;;;5020114;28;20212;-61
2023/03/06 02:33:14;;;;;;;6.17;3.93;;;2.70;99.90;;;;;;5019435;28;20228;-61
2023/03/06 02:35:48;;;;;;;5.33;4.30;;;2.90;99.90;;;;;;5018824;28;20232;-62
2023/03/06 02:38:18;;;;;;;4.23;3.60;;;2.90;99.90;;;;;;5017424;28;20204;-61
2023/03/06 02:40:49;;;;;;;10.10;4.07;;;2.90;99.90;;;;;;5019026;28;20253;-61
2023/03/06 02:43:24;;;;;;;5.00;3.83;;;3.00;99.90;;;;;;5007306;28;20631;-61
2023/03/06 02:45:51;;;;;;;6.37;4.43;;;2.90;99.90;;;;;;5016217;28;20296;-61
2023/03/06 02:48:19;;;;;;;7.07;4.23;;;2.90;99.90;;;;;;5019434;28;20203;-61
2023/03/06 02:50:47;;;;;;;7.43;4.70;;;2.70;99.90;;;;;;5018027;28;20609;-62
2023/03/06 02:53:16;;;;;;;5.53;3.90;;;2.60;99.90;;;;;;5000181;28;20256;-61
2023/03/06 02:55:43;;;;;;;6.40;4.03;;;2.60;99.90;;;;;;5015314;28;20212;-61
2023/03/06 02:58:10;;;;;;;5.97;4.57;;;2.50;99.90;;;;;;5019270;28;20743;-61
2023/03/06 03:00:38;;;;;;;6.40;4.40;;;2.50;99.90;;;;;;5016452;28;20677;-62
2023/03/06 03:03:06;;;;;;;7.30;4.37;;;2.60;99.90;;;;;;5017066;28;20208;-61
2023/03/06 03:05:33;;;;;;;6.70;3.83;;;2.60;99.90;;;;;;5014193;28;20243;-61
2023/03/06 03:08:00;;;;;;;7.00;4.53;;;2.60;99.90;;;;;;5018948;28;20219;-61
2023/03/06 03:10:27;;;;;;;7.93;4.33;;;2.70;99.90;;;;;;5019090;28;20224;-61
2023/03/06 03:12:54;;;;;;;5.83;4.17;;;2.70;99.90;;;;;;5018932;28;20281;-61
2023/03/06 03:15:21;;;;;;;8.30;4.77;;;2.50;99.90;;;;;;5016195;28;22079;-61
2023/03/06 03:17:47;;;;;;;7.00;4.33;;;2.30;99.90;;;;;;5017996;28;20224;-62
2023/03/06 03:20:17;;;;;;;6.90;4.57;;;2.20;99.90;;;;;;5015969;28;20205;-62
2023/03/06 03:22:53;;;;;;;5.83;4.37;;;2.10;99.90;;;;;;5017549;28;20634;-61
2023/03/06 03:25:23;;;;;;;6.23;4.33;;;2.10;99.90;;;;;;5016522;28;20245;-61
2023/03/06 03:27:50;;;;;;;7.93;4.67;;;2.20;99.90;;;;;;5015049;28;20200;-61
2023/03/06 03:30:17;;;;;;;7.10;4.70;;;2.30;99.90;;;;;;5016918;28;20205;-60
2023/03/06 03:32:44;;;;;;;7.30;4.27;;;2.20;99.90;;;;;;5017799;28;20294;-61
2023/03/06 03:35:11;;;;;;;8.20;5.20;;;2.20;99.90;;;;;;5014064;28;20903;-61
2023/03/06 03:37:38;;;;;;;8.83;4.70;;;2.10;99.90;;;;;;5015673;28;20280;-61
2023/03/06 03:40:06;;;;;;;7.93;5.10;;;2.30;99.90;;;;;;5016826;28;20209;-61
2023/03/06 03:42:33;;;;;;;7.00;4.27;;;2.20;99.90;;;;;;5017419;28;20240;-61
2023/03/06 03:45:00;;;;;;;9.40;4.97;;;2.20;99.90;;;;;;5015763;28;20208;-61
2023/03/06 03:47:27;;;;;;;9.03;4.90;;;2.20;99.90;;;;;;5019360;28;20637;-61
2023/03/06 03:49:54;;;;;;;7.13;4.47;;;2.50;99.90;;;;;;5015570;28;20197;-61
2023/03/06 03:52:21;;;;;;;7.37;4.67;;;2.30;99.90;;;;;;5016251;28;20293;-61
2023/03/06 03:54:48;;;;;;;10.83;5.40;;;2.10;99.90;;;;;;5016001;28;20251;-61
2023/03/06 03:57:14;;;;;;;8.20;4.97;;;2.10;99.90;;;;;;5011569;28;20197;-61
2023/03/06 03:59:41;;;;;;;8.57;5.03;;;2.10;99.90;;;;;;5017273;28;22165;-61
2023/03/06 04:02:08;;;;;;;7.93;5.03;;;2.10;99.90;;;;;;5014955;28;20197;-61
2023/03/06 04:04:35;;;;;;;8.10;4.83;;;2.10;99.90;;;;;;5016579;28;20205;-61
2023/03/06 04:07:03;;;;;;;7.47;4.53;;;2.10;99.90;;;;;;5018419;28;20200;-61
2023/03/06 04:09:30;;;;;;;8.10;4.87;;;2.10;99.90;;;;;;5017241;28;20216;-60
2023/03/06 04:11:57;;;;;;;8.47;5.03;;;2.10;99.90;;;;;;5017236;28;20231;-61
2023/03/06 04:14:23;;;;;;;6.73;4.93;;;2.20;99.90;;;;;;5013299;28;20337;-61
2023/03/06 04:16:50;;;;;;;7.00;4.53;;;2.20;99.90;;;;;;5000088;28;20208;-61
2023/03/06 04:19:17;;;;;;;7.47;5.00;;;2.10;99.90;;;;;;5017739;28;20351;-61
2023/03/06 04:21:44;;;;;;;10.87;5.40;;;2.10;99.90;;;;;;5015493;28;20305;-60
2023/03/06 04:24:11;;;;;;;6.70;4.50;;;2.10;99.90;;;;;;5015371;28;20208;-61
2023/03/06 04:26:38;;;;;;;8.37;4.80;;;2.10;99.90;;;;;;5016311;28;20271;-61
2023/03/06 04:29:05;;;;;;;9.00;5.00;;;2.20;99.90;;;;;;5014003;28;20211;-61
2023/03/06 04:31:32;;;;;;;7.50;5.17;;;2.20;99.90;;;;;;5016353;28;20544;-61
2023/03/06 04:33:58;;;;;;;7.93;5.27;;;2.20;99.90;;;;;;5015974;28;20991;-61
2023/03/06 04:36:25;;;;;;;7.60;4.50;;;2.30;99.90;;;;;;4999069;28;20873;-61
2023/03/06 04:38:52;;;;;;;7.90;5.03;;;2.30;99.90;;;;;;5017461;28;20641;-61
2023/03/06 04:41:19;;;;;;;9.03;4.37;;;2.30;99.90;;;;;;5016772;28;20347;-61
2023/03/06 04:43:46;;;;;;;7.77;4.93;;;2.20;99.90;;;;;;5018206;28;20235;-61
2023/03/06 04:46:13;;;;;;;7.10;4.30;;;2.20;99.90;;;;;;5014283;28;20205;-61
2023/03/06 04:48:40;;;;;;;9.30;5.70;;;2.20;99.90;;;;;;5017957;28;20203;-61
2023/03/06 04:51:07;;;;;;;8.53;5.33;;;2.30;99.90;;;;;;5016083;28;20202;-61
2023/03/06 04:53:33;;;;;;;7.83;4.73;;;2.20;99.90;;;;;;5001429;28;20196;-62
2023/03/06 04:56:00;;;;;;;10.80;5.87;;;2.30;99.90;;;;;;5016394;28;20225;-61
2023/03/06 04:58:27;;;;;;;11.10;5.70;;;2.40;99.90;;;;;;5017124;28;20200;-61
2023/03/06 05:00:54;;;;;;;9.30;5.73;;;2.50;99.90;;;;;;5012400;28;20231;-60
2023/03/06 05:03:21;;;;;;;11.80;5.90;;;2.60;99.90;;;;;;5015441;28;20231;-61
2023/03/06 05:05:48;;;;;;;11.63;5.70;;;2.50;99.90;;;;;;5015227;28;20692;-61
2023/03/06 05:08:16;;;;;;;9.97;6.27;;;2.60;99.90;;;;;;5014945;28;20207;-61
2023/03/06 05:10:44;;;;;;;11.57;6.03;;;2.40;99.90;;;;;;5014891;28;20221;-62
2023/03/06 05:13:11;;;;;;;9.73;6.30;;;2.50;99.90;;;;;;5016017;28;20656;-61
2023/03/06 05:15:41;;;;;;;9.43;5.90;;;2.50;99.90;;;;;;5014017;28;20303;-61
2023/03/06 05:18:08;;;;;;;11.00;6.23;;;2.40;99.90;;;;;;4998954;28;20229;-61
2023/03/06 05:20:35;;;;;;;10.03;5.93;;;2.60;99.90;;;;;;5017404;28;20205;-61
2023/03/06 05:23:02;;;;;;;11.80;6.40;;;2.60;99.90;;;;;;5015710;28;20257;-61
2023/03/06 05:25:29;;;;;;;13.17;6.70;;;2.50;99.90;;;;;;5014080;28;20233;-61
2023/03/06 05:27:57;;;;;;;11.33;6.17;;;2.60;99.90;;;;;;5015059;28;20640;-61
2023/03/06 05:30:24;;;;;;;14.87;6.60;;;2.70;99.90;;;;;;5015430;28;20296;-62
2023/03/06 05:32:51;;;;;;;9.97;6.37;;;2.60;99.90;;;;;;5017064;28;20235;-62
2023/03/06 05:35:21;;;;;;;11.00;6.20;;;2.60;99.90;;;;;;5015591;28;20226;-62
2023/03/06 05:37:48;;;;;;;10.37;6.67;;;2.60;99.90;;;;;;5015904;28;20671;-61
2023/03/06 05:40:17;;;;;;;9.17;6.77;;;2.70;99.90;;;;;;5015102;28;20211;-61
2023/03/06 05:42:44;;;;;;;12.50;7.20;;;2.60;99.90;;;;;;5017334;28;20537;-60
2023/03/06 05:45:11;;;;;;;14.53;6.93;;;2.60;99.90;;;;;;5015491;28;20212;-60
2023/03/06 05:47:38;;;;;;;10.00;5.97;;;2.60;99.90;;;;;;5021142;28;20296;-62
2023/03/06 05:50:07;;;;;;;11.90;6.73;;;2.60;99.90;;;;;;5018917;28;20614;-61
2023/03/06 05:52:33;;;;;;;14.03;7.03;;;2.60;99.90;;;;;;5020244;28;20212;-60
2023/03/06 05:55:00;;;;;;;11.97;6.67;;;2.60;99.90;;;;;;5017336;28;20260;-61
2023/03/06 05:57:27;;;;;;;14.20;7.60;;;2.60;99.90;;;;;;5008023;28;20205;-61
2023/03/06 05:59:54;;;;;;;11.33;6.37;;;2.60;99.90;;;;;;5016724;28;20295;-61
2023/03/06 06:02:21;;;;;;;15.40;8.27;;;2.70;99.90;;;;;;5017135;28;20303;-61
2023/03/06 06:04:48;;;;;;;13.07;7.07;;;2.80;99.90;;;;;;5017349;28;20201;-61
2023/03/06 06:07:16;;;;;;;11.83;7.07;;;2.70;99.90;;;;;;5020750;28;20674;-61
2023/03/06 06:09:44;;;;;;;13.40;8.07;;;2.80;99.90;;;;;;5018668;28;20209;-63
2023/03/06 06:12:12;;;;;;;15.50;8.80;;;2.80;99.90;;;;;;5017559;28;20208;-61
2023/03/06 06:14:39;;;;;;;17.00;7.80;;;2.90;99.90;;;;;;5014740;28;20304;-61
2023/03/06 06:17:05;;;;;;;13.43;7.70;;;2.90;99.90;;;;;;5011173;28;20250;-61
2023/03/06 06:19:32;;;;;;;12.53;7.13;;;2.90;99.90;;;;;;4666561;28;10000606;-62
2023/03/06 06:22:01;;;;;;;13.47;8.13;;;3.00;99.90;;;;;;5006271;28;20201;-61
2023/03/06 06:24:29;;;;;;;16.90;7.27;;;2.90;99.90;;;;;;4994962;28;20297;-61
2023/03/06 06:26:57;;;;;;;15.57;7.33;;;3.00;99.90;;;;;;5010676;28;20622;-61
2023/03/06 06:29:26;;;;;;;13.57;7.30;;;2.90;99.90;;;;;;5012659;28;20201;-62
2023/03/06 06:31:54;;;;;;;13.90;8.13;;;2.90;99.90;;;;;;5009252;28;20284;-62
2023/03/06 06:34:23;;;;;;;13.70;8.07;;;2.80;99.90;;;;;;4996920;28;20254;-62
2023/03/06 06:36:50;;;;;;;12.03;6.97;;;2.90;99.90;;;;;;5014685;28;20292;-62
2023/03/06 06:39:20;;;;;;;14.43;8.27;;;2.80;99.90;;;;;;5018015;28;20236;-63
2023/03/06 06:41:50;;;;;;;11.83;7.30;;;2.90;99.90;;;;;;5014764;28;20319;-62
2023/03/06 06:44:36;;;;;;;13.10;6.10;;;3.10;99.90;;;;;;5017396;28;20223;-62
2023/03/06 06:47:04;;;;;;;12.97;8.00;;;3.20;99.90;;;;;;5015080;28;20209;-62
2023/03/06 06:49:52;;;;;;;13.80;7.43;;;3.20;99.90;;;;;;5014145;28;20202;-62
2023/03/06 06:52:19;;;;;;;16.67;8.00;;;3.20;99.90;;;;;;5015699;28;20220;-62
2023/03/06 06:54:45;;;;;;;14.57;8.40;;;3.20;99.90;;;;;;5015889;28;20236;-62
2023/03/06 06:57:13;;;;;;;14.10;7.93;;;3.20;99.90;;;;;;5015863;28;20204;-62
2023/03/06 06:59:39;;;;;;;14.57;8.00;;;3.20;99.90;;;;;;5016535;28;20240;-62
2023/03/06 07:02:06;;;;;;;12.77;8.27;;;3.30;99.90;;;;;;5014134;28;20201;-61
2023/03/06 07:04:33;;;;;;;14.00;7.97;;;3.30;99.90;;;;;;5016463;28;20295;-62
2023/03/06 07:07:00;;;;;;;11.60;7.10;;;3.40;99.90;;;;;;5019413;28;20232;-62
2023/03/06 07:09:29;;;;;;;12.87;7.70;;;3.40;99.90;;;;;;5018337;28;20355;-61
2023/03/06 07:11:56;;;;;;;12.97;7.80;;;3.30;99.90;;;;;;5001894;28;20299;-61
2023/03/06 07:14:23;;;;;;;14.07;7.47;;;3.40;99.90;;;;;;5017857;28;20255;-62
2023/03/06 07:16:50;;;;;;;12.83;8.33;;;3.30;99.90;;;;;;5015330;28;20209;-61
2023/03/06 07:19:17;;;;;;;16.77;8.23;;;3.40;99.90;;;;;;5001646;28;20260;-62
2023/03/06 07:21:44;;;;;;;14.20;8.20;;;3.60;99.90;;;;;;5016619;28;20734;-63
2023/03/06 07:24:11;;;;;;;18.00;9.17;;;3.60;99.90;;;;;;5015376;28;20686;-62
2023/03/06 07:26:38;;;;;;;13.83;8.70;;;3.70;99.90;;;;;;4999598;28;20303;-62
2023/03/06 07:29:05;;;;;;;27.33;12.03;;;3.70;99.90;;;;;;5019290;28;20212;-61
2023/03/06 07:31:31;;;;;;;18.40;9.80;;;3.70;99.90;;;;;;5017821;28;20642;-60
2023/03/06 07:33:59;;;;;;;15.90;9.13;;;3.70;99.90;;;;;;5016896;28;20197;-61
2023/03/06 07:36:28;;;;;;;15.73;8.80;;;3.60;99.90;;;;;;5019711;28;20671;-61
2023/03/06 07:38:55;;;;;;;17.77;8.90;;;3.70;99.90;;;;;;5019797;28;20204;-60
2023/03/06 07:41:22;;;;;;;22.27;9.40;;;3.70;99.90;;;;;;5020317;28;20262;-61
2023/03/06 07:43:49;;;;;;;16.80;10.37;;;3.80;99.90;;;;;;5002543;28;20335;-61
2023/03/06 07:46:16;;;;;;;15.30;8.97;;;3.70;99.90;;;;;;5017389;28;20205;-61
2023/03/06 07:48:43;;;;;;;20.13;9.80;;;3.80;99.90;;;;;;5002871;28;20201;-61
2023/03/06 07:51:21;;;;;;;18.17;9.93;;;3.90;99.90;;;;;;5019506;28;20197;-60
2023/03/06 07:53:48;;;;;;;15.13;8.43;;;3.80;99.90;;;;;;5019996;28;20203;-61
2023/03/06 07:56:15;;;;;;;16.20;9.60;;;3.80;99.90;;;;;;5018614;28;20584;-61
2023/03/06 07:58:44;;;;;;;18.03;10.97;;;3.80;99.90;;;;;;5019766;28;20193;-61
2023/03/06 08:01:14;;;;;;;18.07;10.87;;;4.00;99.90;;;;;;5019695;28;20287;-61
2023/03/06 08:03:41;;;;;;;17.80;9.43;;;4.20;99.90;;;;;;5020451;28;20228;-61
2023/03/06 08:06:10;;;;;;;16.13;9.23;;;4.20;99.90;;;;;;5019455;28;20255;-61
2023/03/06 08:08:39;;;;;;;15.83;10.20;;;4.20;99.90;;;;;;5018362;28;20209;-61
2023/03/06 08:11:08;;;;;;;17.97;10.53;;;4.20;99.90;;;;;;5015687;28;20202;-61
2023/03/06 08:13:35;;;;;;;18.80;9.80;;;4.30;99.90;;;;;;5016827;28;20708;-61
2023/03/06 08:16:03;;;;;;;18.20;10.13;;;4.30;99.90;;;;;;5014071;28;20297;-62
2023/03/06 08:18:29;;;;;;;17.17;9.97;;;4.60;99.90;;;;;;5015015;28;20306;-61
2023/03/06 08:21:05;;;;;;;16.70;9.97;;;4.70;99.90;;;;;;5013078;28;20308;-61
2023/03/06 08:23:33;;;;;;;14.83;10.10;;;4.60;99.90;;;;;;5017327;28;20200;-61
2023/03/06 08:26:04;;;;;;;17.03;9.30;;;4.80;99.90;;;;;;5003921;28;20240;-61
2023/03/06 08:28:31;;;;;;;14.67;9.13;;;4.70;99.90;;;;;;5013471;28;20420;-64
2023/03/06 08:31:05;;;;;;;15.13;9.40;;;5.00;99.90;;;;;;4999537;28;20682;-64
2023/03/06 08:33:32;;;;;;;19.07;10.30;;;5.00;99.90;;;;;;5010473;28;20204;-65
2023/03/06 08:35:59;;;;;;;13.97;9.63;;;5.00;1.00;;;;;;4995561;28;20247;-64
2023/03/06 08:38:28;;;;;;;11.47;8.50;;;5.10;1.00;;;;;;5010791;28;20209;-64
2023/03/06 08:40:55;;;;;;;14.60;8.77;;;4.90;99.90;;;;;;5002976;28;20629;-65
2023/03/06 08:43:21;;;;;;;12.50;8.80;;;5.10;1.00;;;;;;5015566;28;20232;-65
2023/03/06 08:45:56;;;;;;;12.70;9.07;;;5.30;99.90;;;;;;4997446;28;20205;-64
2023/03/06 08:48:24;;;;;;;14.07;8.40;;;5.40;1.00;;;;;;5016695;28;20234;-64
2023/03/06 08:50:51;;;;;;;13.57;8.73;;;5.50;99.90;;;;;;5009496;28;20205;-64
2023/03/06 08:53:18;;;;;;;11.30;7.97;;;5.50;1.00;;;;;;5010131;28;20202;-65
2023/03/06 08:55:45;;;;;;;10.60;7.47;;;5.50;99.90;;;;;;5014284;28;20240;-64
2023/03/06 08:58:12;;;;;;;8.93;5.93;;;5.70;1.00;;;;;;4999610;28;20571;-65
2023/03/06 09:00:39;;;;;;;8.60;6.03;;;5.50;1.00;;;;;;5010184;28;20289;-65
2023/03/06 09:03:06;;;;;;;10.27;7.17;;;5.40;99.90;;;;;;5001288;28;20725;-64
2023/03/06 09:05:33;;;;;;;10.70;6.67;;;5.50;5.60;;;;;;5013397;28;20297;-64
2023/03/06 09:07:59;;;;;;;11.93;6.73;;;5.60;1.00;;;;;;5016354;28;20672;-63
2023/03/06 09:10:26;;;;;;;9.23;5.40;;;5.60;1.00;;;;;;5009210;28;20216;-64
2023/03/06 09:12:53;;;;;;;7.77;5.60;;;5.40;99.90;;;;;;5013660;28;20208;-64
2023/03/06 09:15:21;;;;;;;8.90;5.67;;;5.50;99.90;;;;;;5012286;28;20763;-63
2023/03/06 09:17:49;;;;;;;7.17;4.27;;;5.60;99.90;;;;;;5011319;28;20261;-66
2023/03/06 09:20:17;;;;;;;7.77;4.23;;;5.50;1.00;;;;;;5017385;28;20260;-64
2023/03/06 09:22:44;;;;;;;5.27;3.90;;;5.60;1.00;;;;;;5020458;28;20212;-64
2023/03/06 09:25:12;;;;;;;6.33;4.00;;;5.50;1.00;;;;;;5018765;28;20248;-64
2023/03/06 09:27:39;;;;;;;5.33;3.63;;;5.40;99.90;;;;;;5001899;28;20201;-65
2023/03/06 09:30:07;;;;;;;5.43;4.10;;;5.50;1.00;;;;;;5018626;28;20726;-64
2023/03/06 09:32:34;;;;;;;6.03;3.73;;;5.50;99.90;;;;;;5020176;28;20200;-64
2023/03/06 09:35:01;;;;;;;5.63;4.23;;;5.50;99.90;;;;;;5013371;28;20228;-64
2023/03/06 09:37:29;;;;;;;7.20;4.87;;;5.40;99.90;;;;;;5015955;28;20676;-64
2023/03/06 09:39:56;;;;;;;8.70;4.87;;;5.60;1.00;;;;;;5017049;28;20258;-64
2023/03/06 09:42:24;;;;;;;6.93;4.50;;;5.60;99.90;;;;;;5018286;28;20201;-64
2023/03/06 09:44:57;;;;;;;7.53;4.87;;;5.80;1.00;;;;;;5016834;28;20196;-64
2023/03/06 09:47:53;;;;;;;7.10;4.80;;;6.10;99.90;;;;;;5018885;28;20598;-64
2023/03/06 09:50:42;;;;;;;6.40;4.50;;;6.10;99.90;;;;;;5014112;28;20624;-64
2023/03/06 09:53:44;;;;;;;9.00;5.00;;;6.00;1.00;;;;;;5018750;28;20232;-64
2023/03/06 09:56:23;;;;;;;6.50;3.80;;;6.10;1.00;;;;;;4993897;28;20234;-64
2023/03/06 09:58:54;;;;;;;4.07;3.50;;;6.10;1.00;;;;;;5022072;28;20212;-64
2023/03/06 10:01:34;;;;;;;5.80;3.90;;;6.00;1.00;;;;;;5019662;28;20203;-64
2023/03/06 10:04:08;;;;;;;5.97;3.60;;;5.70;1.00;;;;;;5019932;28;20611;-64
2023/03/06 10:06:55;;;;;;;6.00;4.17;;;5.80;1.00;;;;;;5003397;28;21061;-65
2023/03/06 10:09:42;;;;;;;6.73;4.20;;;5.90;99.90;;;;;;5021064;28;20248;-64
2023/03/06 10:12:37;;;;;;;5.63;3.47;;;5.70;64.00;;;;;;5019383;28;20209;-64
2023/03/06 10:15:19;;;;;;;5.03;3.93;;;5.70;99.90;;;;;;5010260;28;20718;-64
2023/03/06 10:17:47;;;;;;;4.63;3.47;;;5.80;99.90;;;;;;5021520;28;20228;-63
2023/03/06 10:20:22;;;;;;;8.43;4.27;;;5.60;1.00;;;;;;5019507;28;20292;-65
2023/03/06 10:23:01;;;;;;;7.00;4.20;;;5.90;99.90;;;;;;5021780;28;20207;-64
2023/03/06 10:25:41;;;;;;;5.23;3.60;;;6.10;1.00;;;;;;5019396;28;20232;-64
2023/03/06 10:28:20;;;;;;;7.50;3.77;;;6.00;1.00;;;;;;5020555;28;20278;-65
2023/03/06 10:31:23;;;;;;;5.17;3.97;;;6.00;1.00;;;;;;5018251;28;20636;-64
2023/03/06 10:34:20;;;;;;;6.37;4.37;;;5.60;99.90;;;;;;4948919;28;20205;-64
2023/03/06 10:36:48;;;;;;;5.30;4.10;;;5.70;1.00;;;;;;4960262;28;20261;-64
2023/03/06 10:39:18;;;;;;;6.27;3.97;;;5.70;99.90;;;;;;4960162;28;20710;-63
2023/03/06 10:41:46;;;;;;;5.87;4.37;;;5.70;99.90;;;;;;4948778;28;20423;-64
2023/03/06 10:44:13;;;;;;;7.20;4.70;;;5.70;99.90;;;;;;4943110;28;21338;-64
2023/03/06 10:46:42;;;;;;;5.77;4.53;;;5.80;23.90;;;;;;4957179;28;20216;-64
2023/03/06 10:49:28;;;;;;;6.03;4.60;;;5.90;1.00;;;;;;4957385;28;21143;-63
2023/03/06 10:52:13;;;;;;;6.20;4.43;;;5.90;1.00;;;;;;4947673;28;20228;-63
2023/03/06 10:54:42;;;;;;;7.90;4.73;;;6.00;1.00;;;;;;4961945;28;20295;-64
2023/03/06 10:57:30;;;;;;;10.83;5.90;;;5.80;1.00;;;;;;4961236;28;20585;-64
2023/03/06 11:00:00;;;;;;;9.67;6.10;;;5.90;26.40;;;;;;4960578;28;20199;-64
2023/03/06 11:02:34;;;;;;;12.90;6.40;;;6.00;24.90;;;;;;4960547;28;20256;-64
2023/03/06 11:05:03;;;;;;;8.43;5.97;;;6.30;99.90;;;;;;4956413;28;20214;-64
2023/03/06 11:07:32;;;;;;;8.47;5.83;;;6.30;1.00;;;;;;4980946;28;20212;-64
2023/03/06 11:10:18;;;;;;;9.93;5.97;;;6.10;1.00;;;;;;5018224;28;20209;-64
2023/03/06 11:13:19;;;;;;;7.03;4.97;;;6.10;1.00;;;;;;5013366;28;20564;-64
2023/03/06 11:15:59;;;;;;;9.40;5.67;;;6.30;1.00;;;;;;5016128;28;20217;-64
2023/03/06 11:18:34;;;;;;;7.87;5.40;;;6.30;1.00;;;;;;5017606;28;20226;-63
2023/03/06 11:21:06;;;;;;;11.30;5.63;;;6.30;1.00;;;;;;5006170;28;20985;-64
2023/03/06 11:23:42;;;;;;;10.10;5.83;;;6.50;1.00;;;;;;5018747;28;20197;-64
2023/03/06 11:26:15;;;;;;;9.37;4.83;;;6.70;1.00;;;;;;5016440;28;20244;-64
2023/03/06 11:29:06;;;;;;;9.13;4.63;;;7.30;99.90;;;;;;5012358;28;20268;-63
2023/03/06 11:31:38;;;;;;;6.93;4.87;;;7.20;1.00;;;;;;5016145;28;20211;-64
2023/03/06 11:34:15;;;;;;;8.27;4.60;;;7.30;47.00;;;;;;5017730;28;22328;-64
2023/03/06 11:37:11;;;;;;;10.20;5.70;;;7.20;1.00;;;;;;5009719;28;20223;-64
2023/03/06 11:39:48;;;;;;;8.13;5.40;;;7.20;1.00;;;;;;5017035;28;20300;-65
2023/03/06 11:42:41;;;;;;;9.53;4.87;;;7.00;23.50;;;;;;5017074;28;20227;-64
2023/03/06 11:45:17;;;;;;;10.23;6.33;;;7.00;99.60;;;;;;5001831;28;20575;-64
2023/03/06 11:48:05;;;;;;;9.83;6.67;;;7.00;99.90;;;;;;5016953;28;20210;-64
2023/03/06 11:51:02;;;;;;;10.90;7.07;;;6.80;99.90;;;;;;5015916;28;20206;-64
2023/03/06 11:53:36;;;;;;;12.47;7.33;;;7.00;1.00;;;;;;4999517;28;20547;-65
2023/03/06 11:56:19;;;;;;;11.23;7.17;;;7.00;99.90;;;;;;5005864;28;20247;-64
2023/03/06 11:58:59;;;;;;;10.53;7.00;;;7.20;99.90;;;;;;5014537;28;20289;-65
2023/03/06 12:01:35;;;;;;;11.77;7.10;;;7.30;99.90;;;;;;5017386;28;20229;-65
2023/03/06 12:04:20;;;;;;;9.43;6.30;;;7.50;99.90;;;;;;5014687;28;20729;-65
2023/03/06 12:07:19;;;;;;;9.13;5.73;;;7.00;1.00;;;;;;5018043;28;20201;-65
2023/03/06 12:10:09;;;;;;;8.43;4.60;;;7.00;99.90;;;;;;5017613;28;20203;-66
2023/03/06 12:13:04;;;;;;;7.33;3.80;;;6.80;1.00;;;;;;5007395;28;20829;-65
2023/03/06 12:15:58;;;;;;;5.37;3.87;;;6.70;1.00;;;;;;5019159;28;20214;-64
2023/03/06 12:18:34;;;;;;;4.10;2.80;;;6.90;1.00;;;;;;5019383;28;20222;-64
2023/03/06 12:21:24;;;;;;;4.97;3.20;;;6.80;1.00;;;;;;5015019;28;20202;-63
2023/03/06 12:24:09;;;;;;;4.57;3.27;;;6.60;1.00;;;;;;5020266;28;20291;-64
2023/03/06 12:26:45;;;;;;;5.90;4.07;;;6.80;1.00;;;;;;5016414;28;21096;-63
2023/03/06 12:29:29;;;;;;;6.43;3.33;;;7.00;1.00;;;;;;5017872;28;20308;-63
2023/03/06 12:32:02;;;;;;;7.03;3.63;;;7.00;1.00;;;;;;5018394;28;20201;-66
2023/03/06 12:35:10;;;;;;;4.20;3.43;;;7.10;1.00;;;;;;5017060;28;20255;-64
2023/03/06 12:38:04;;;;;;;4.67;3.47;;;7.30;1.00;;;;;;4917822;29;20783;-63
2023/03/06 12:40:57;;;;;;;5.47;3.40;;;7.20;1.00;;;;;;5014996;28;20288;-63
2023/03/06 12:44:11;;;;;;;5.90;3.10;;;7.40;1.00;;;;;;5019054;28;20205;-63
2023/03/06 12:46:52;;;;;;;6.77;4.20;;;7.70;1.00;;;;;;5011978;28;20206;-66
2023/03/06 12:49:27;;;;;;;4.80;3.50;;;8.50;99.90;;;;;;5011904;28;20663;-63
2023/03/06 12:51:59;;;;;;;6.33;4.07;;;7.90;99.90;;;;;;4999412;28;20331;-64
2023/03/06 12:54:32;;;;;;;6.73;4.50;;;8.20;1.00;;;;;;5012877;28;20227;-64
2023/03/06 12:56:59;;;;;;;7.80;5.23;;;8.40;99.90;;;;;;5018678;28;20351;-64
2023/03/06 12:59:46;;;;;;;4.67;4.03;;;8.40;99.90;;;;;;5017746;28;20663;-64
2023/03/06 13:02:45;;;;;;;7.33;4.63;;;8.50;99.90;;;;;;5018910;28;20289;-64
2023/03/06 13:05:40;;;;;;;6.27;4.60;;;8.10;99.90;;;;;;5022402;28;20217;-64
2023/03/06 13:08:27;;;;;;;6.23;4.50;;;7.80;99.90;;;;;;5020240;28;20203;-63
2023/03/06 13:11:38;;;;;;;7.47;4.97;;;7.60;99.90;;;;;;5018787;28;20281;-65
2023/03/06 13:14:21;;;;;;;7.23;4.43;;;7.60;99.90;;;;;;4935780;28;20207;-64
2023/03/06 13:16:48;;;;;;;7.13;5.37;;;7.60;99.90;;;;;;4937177;28;20220;-64
2023/03/06 13:19:24;;;;;;;7.60;5.10;;;7.30;1.00;;;;;;4986438;28;20286;-64